Time;durP1;ratioP1;P1;durP2;ratioP2;P2;SDS_P1;SDS_P2;PMS_P1;PMS_P2;Temp;Humidity;BMP_temperature;BMP_pressure;BME280_temperature;BME280_humidity;BME280_pressure;Samples;Min_cycle;Max_cycle;Signal;HPM_P1;HPM_P2
2022/09/20 16:19:19;;;;;;;3.57;0.50;;;16.50;99.90;;;;;;6220987;22;20207;-66
2022/09/20 16:21:48;;;;;;;3.50;0.57;;;16.60;99.90;;;;;;6243088;23;20179;-70
2022/09/20 16:24:15;;;;;;;1.30;0.50;;;16.50;99.90;;;;;;6246253;23;20204;-70
2022/09/20 16:26:42;;;;;;;1.17;0.53;;;16.30;99.90;;;;;;6247079;23;20202;-69
2022/09/20 16:29:10;;;;;;;1.40;0.60;;;16.20;99.90;;;;;;6246782;23;20179;-69
2022/09/20 16:31:39;;;;;;;1.70;0.50;;;16.20;99.90;;;;;;6247418;23;20175;-69
2022/09/20 16:34:11;;;;;;;3.57;0.30;;;16.20;99.90;;;;;;6246894;23;20551;-70
2022/09/20 16:36:40;;;;;;;1.27;1.07;;;16.10;99.90;;;;;;6247121;23;20200;-70
2022/09/20 16:39:07;;;;;;;0.97;0.40;;;16.20;99.90;;;;;;6247217;23;20234;-69
2022/09/20 16:41:34;;;;;;;1.57;0.50;;;16.00;99.90;;;;;;6246885;23;20180;-69
2022/09/20 16:44:02;;;;;;;2.73;0.50;;;16.00;99.90;;;;;;6246577;23;20651;-69
2022/09/20 16:46:31;;;;;;;1.37;0.47;;;16.00;99.90;;;;;;6246837;23;20202;-68
2022/09/20 16:48:59;;;;;;;3.60;0.60;;;16.00;99.90;;;;;;6247506;23;20175;-68
2022/09/20 16:51:32;;;;;;;0.53;0.43;;;16.00;99.90;;;;;;6246938;23;20179;-68
2022/09/20 16:54:00;;;;;;;3.20;0.80;;;15.90;99.90;;;;;;6247180;23;20203;-68
2022/09/20 16:56:29;;;;;;;1.47;0.50;;;15.90;99.90;;;;;;6247054;23;20202;-68
2022/09/20 16:58:56;;;;;;;3.60;0.60;;;15.80;99.90;;;;;;6246468;23;20640;-68
2022/09/20 17:01:23;;;;;;;1.37;0.87;;;15.80;99.90;;;;;;6246739;23;20258;-68
2022/09/20 17:03:50;;;;;;;1.37;0.67;;;15.80;99.90;;;;;;6246322;23;20202;-68
2022/09/20 17:06:17;;;;;;;1.67;0.70;;;15.70;99.90;;;;;;6246716;23;20262;-68
2022/09/20 17:08:47;;;;;;;1.20;0.60;;;15.70;99.90;;;;;;6246586;23;20175;-67
2022/09/20 17:11:16;;;;;;;2.03;0.73;;;15.60;99.90;;;;;;6246972;23;20179;-68
2022/09/20 17:13:46;;;;;;;0.97;0.60;;;15.50;99.90;;;;;;6245925;23;20190;-68
2022/09/20 17:16:15;;;;;;;2.17;0.70;;;15.50;99.90;;;;;;6246914;23;20698;-68
2022/09/20 17:18:43;;;;;;;3.23;0.50;;;15.50;99.90;;;;;;6259957;22;20187;-68
2022/09/20 17:21:12;;;;;;;2.37;0.80;;;15.30;99.90;;;;;;6277077;22;20175;-68
2022/09/20 17:23:40;;;;;;;1.37;0.70;;;15.30;99.90;;;;;;6277496;22;20178;-68
2022/09/20 17:26:13;;;;;;;2.13;0.63;;;15.20;99.90;;;;;;6276699;22;20666;-68
2022/09/20 17:28:42;;;;;;;1.27;0.50;;;15.10;99.90;;;;;;6277604;22;20213;-68
2022/09/20 17:31:11;;;;;;;1.20;0.53;;;15.00;99.90;;;;;;6277122;22;20175;-68
2022/09/20 17:33:39;;;;;;;2.30;0.60;;;14.90;99.90;;;;;;6277143;22;20179;-68
2022/09/20 17:36:06;;;;;;;6.97;0.80;;;14.80;99.90;;;;;;6276675;22;20671;-68
2022/09/20 17:38:34;;;;;;;0.70;0.50;;;14.80;99.90;;;;;;6277459;22;20183;-67
2022/09/20 17:41:02;;;;;;;1.50;0.63;;;14.70;99.90;;;;;;6277188;22;20175;-68
2022/09/20 17:43:30;;;;;;;1.07;0.60;;;14.60;99.90;;;;;;6277130;22;20183;-68
2022/09/20 17:46:10;;;;;;;1.80;0.70;;;14.60;99.90;;;;;;6276998;22;20229;-68
2022/09/20 17:48:36;;;;;;;1.90;1.00;;;14.40;99.90;;;;;;6276950;22;20181;-67
2022/09/20 17:51:04;;;;;;;1.90;0.63;;;14.30;99.90;;;;;;6277061;22;20175;-67
2022/09/20 17:53:32;;;;;;;4.37;0.90;;;14.10;99.90;;;;;;6276969;22;20186;-68
2022/09/20 17:56:00;;;;;;;0.83;0.50;;;14.00;99.90;;;;;;6276759;22;20663;-68
2022/09/20 17:58:27;;;;;;;1.70;0.93;;;13.90;99.90;;;;;;6277171;22;20174;-68
2022/09/20 18:01:02;;;;;;;3.10;0.63;;;14.00;99.90;;;;;;6277071;22;20529;-68
2022/09/20 18:03:29;;;;;;;4.60;0.90;;;14.00;99.90;;;;;;6277487;22;20181;-68
2022/09/20 18:05:56;;;;;;;3.27;0.90;;;13.80;99.90;;;;;;6276773;22;20211;-68
2022/09/20 18:08:23;;;;;;;3.17;1.30;;;13.80;99.90;;;;;;6277054;22;20175;-68
2022/09/20 18:10:57;;;;;;;1.77;0.93;;;13.80;99.90;;;;;;6277139;22;20174;-68
2022/09/20 18:13:26;;;;;;;2.87;0.97;;;13.70;99.90;;;;;;6276819;22;20266;-68
2022/09/20 18:15:53;;;;;;;3.13;0.87;;;13.60;99.90;;;;;;6276898;22;20230;-68
2022/09/20 18:18:21;;;;;;;1.57;0.80;;;13.60;99.90;;;;;;6276779;22;20266;-68
2022/09/20 18:20:48;;;;;;;1.67;0.80;;;13.50;99.90;;;;;;6276555;22;20175;-68
2022/09/20 18:23:15;;;;;;;2.77;0.83;;;13.40;99.90;;;;;;6276775;22;20175;-68
2022/09/20 18:28:27;;;;;;;3.47;0.90;;;13.20;99.90;;;;;;6276842;22;20261;-68
2022/09/20 18:31:01;;;;;;;3.33;1.20;;;13.10;99.90;;;;;;6276817;22;20187;-68
2022/09/20 18:33:30;;;;;;;3.33;1.53;;;13.00;99.90;;;;;;6276494;22;20178;-69
2022/09/20 18:36:02;;;;;;;3.77;1.00;;;12.90;99.90;;;;;;6276557;22;20205;-66
2022/09/20 18:38:29;;;;;;;2.23;1.10;;;12.90;99.90;;;;;;6276778;22;20183;-67
2022/09/20 18:40:59;;;;;;;1.97;1.03;;;12.90;99.90;;;;;;6276826;22;20181;-67
2022/09/20 18:43:27;;;;;;;5.97;1.30;;;12.90;99.90;;;;;;6276737;22;20198;-67
2022/09/20 18:45:54;;;;;;;2.80;1.50;;;13.00;99.90;;;;;;6276554;22;20260;-66
2022/09/20 18:48:22;;;;;;;4.73;2.17;;;12.90;99.90;;;;;;6276486;22;20655;-67
2022/09/20 18:51:01;;;;;;;6.03;2.30;;;12.80;99.90;;;;;;6276412;22;20480;-67
2022/09/20 18:53:29;;;;;;;6.07;2.10;;;12.80;99.90;;;;;;6276898;22;20175;-67
2022/09/20 18:55:57;;;;;;;5.03;2.40;;;12.70;99.90;;;;;;6276561;22;20195;-67
2022/09/20 18:58:24;;;;;;;7.03;2.70;;;12.60;99.90;;;;;;6276477;22;20367;-67
2022/09/20 19:01:05;;;;;;;5.77;2.63;;;12.60;99.90;;;;;;6276418;22;20178;-67
2022/09/20 19:03:46;;;;;;;5.23;2.50;;;12.60;99.90;;;;;;6277007;22;20175;-67
2022/09/20 19:06:17;;;;;;;7.03;3.20;;;12.60;99.90;;;;;;6276520;22;20234;-67
2022/09/20 19:08:52;;;;;;;5.30;2.80;;;12.70;99.90;;;;;;6276019;22;20612;-67
2022/09/20 19:11:28;;;;;;;3.60;2.63;;;12.70;99.90;;;;;;6276667;22;20178;-67
2022/09/20 19:14:00;;;;;;;7.27;2.70;;;12.70;99.90;;;;;;6276413;22;20174;-67
2022/09/20 19:16:33;;;;;;;6.93;3.83;;;12.70;99.90;;;;;;6276373;22;20209;-67
2022/09/20 19:19:18;;;;;;;6.97;2.97;;;12.50;99.90;;;;;;6276424;22;20182;-67
2022/09/20 19:21:57;;;;;;;4.87;3.07;;;12.40;99.90;;;;;;6276479;22;20178;-67
2022/09/20 19:24:45;;;;;;;8.43;3.33;;;12.30;99.90;;;;;;6276084;22;20183;-67
2022/09/20 19:27:13;;;;;;;7.73;3.00;;;12.20;99.90;;;;;;6271475;22;20499;-67
2022/09/20 19:29:40;;;;;;;8.27;3.80;;;12.10;99.90;;;;;;6276368;22;20181;-67
2022/09/20 19:32:15;;;;;;;8.87;4.17;;;12.20;99.90;;;;;;6276301;22;20179;-67
2022/09/20 19:34:44;;;;;;;9.60;3.90;;;12.30;99.90;;;;;;6275965;22;20198;-67
2022/09/20 19:37:20;;;;;;;8.53;3.73;;;12.30;99.90;;;;;;6277215;22;20178;-67
2022/09/20 19:40:03;;;;;;;8.27;3.97;;;12.40;99.90;;;;;;6277843;22;20178;-67
2022/09/20 19:42:48;;;;;;;8.63;3.57;;;12.40;99.90;;;;;;6278373;22;20175;-67
2022/09/20 19:45:27;;;;;;;10.27;4.00;;;12.40;99.90;;;;;;6277938;22;20663;-67
2022/09/20 19:48:05;;;;;;;6.93;3.53;;;12.30;99.90;;;;;;6277677;22;20181;-68
2022/09/20 19:50:37;;;;;;;7.53;3.87;;;12.30;99.90;;;;;;6278337;22;20181;-68
2022/09/20 19:53:06;;;;;;;7.20;3.67;;;12.30;99.90;;;;;;6278031;22;20179;-68
2022/09/20 19:55:34;;;;;;;6.20;3.70;;;12.10;99.90;;;;;;6278362;22;20216;-68
2022/09/20 19:58:02;;;;;;;7.57;3.47;;;12.00;99.90;;;;;;6278632;22;20175;-68
2022/09/20 20:00:30;;;;;;;11.30;3.83;;;12.00;99.90;;;;;;6278447;22;20174;-68
2022/09/20 20:02:57;;;;;;;8.40;4.37;;;12.00;99.90;;;;;;6278237;22;20178;-68
2022/09/20 20:05:26;;;;;;;6.17;4.03;;;11.90;99.90;;;;;;6277711;22;20215;-68
2022/09/20 20:08:07;;;;;;;9.27;4.07;;;11.90;99.90;;;;;;6278087;22;20253;-68
2022/09/20 20:10:46;;;;;;;6.20;3.67;;;12.00;99.90;;;;;;6278082;22;20181;-68
2022/09/20 20:16:06;;;;;;;5.73;3.57;;;12.10;99.90;;;;;;6278017;22;20202;-68
2022/09/20 20:18:39;;;;;;;8.93;3.73;;;12.10;99.90;;;;;;6278052;22;20190;-68
2022/09/20 20:21:17;;;;;;;7.03;3.97;;;12.00;99.90;;;;;;6278069;22;20262;-67
2022/09/20 20:24:03;;;;;;;7.67;4.33;;;11.90;99.90;;;;;;6277485;22;20619;-69
2022/09/20 20:26:32;;;;;;;6.60;4.33;;;12.00;99.90;;;;;;6277724;22;20255;-68
2022/09/20 20:28:58;;;;;;;8.90;4.23;;;12.00;99.90;;;;;;6277884;22;20181;-68
2022/09/20 20:31:26;;;;;;;10.73;5.00;;;11.90;99.90;;;;;;6278051;22;20185;-68
2022/09/20 20:33:53;;;;;;;9.03;4.63;;;11.80;99.90;;;;;;6277890;22;20221;-67
2022/09/20 20:36:20;;;;;;;9.97;4.30;;;11.80;99.90;;;;;;6277378;22;20199;-68
2022/09/20 20:38:51;;;;;;;8.90;4.50;;;11.80;99.90;;;;;;6277903;22;20175;-68
2022/09/20 20:41:20;;;;;;;8.90;4.60;;;11.80;99.90;;;;;;6278037;22;20625;-68
2022/09/20 20:43:55;;;;;;;9.87;4.10;;;11.70;99.90;;;;;;6277754;22;20179;-68
2022/09/20 20:46:22;;;;;;;6.67;4.47;;;11.80;99.90;;;;;;6277316;22;20206;-69
2022/09/20 20:48:49;;;;;;;8.53;4.43;;;11.80;99.90;;;;;;6277102;22;20175;-68
2022/09/20 20:51:17;;;;;;;8.83;4.17;;;11.70;99.90;;;;;;6277902;22;20175;-68
2022/09/20 20:53:45;;;;;;;11.40;4.73;;;11.80;99.90;;;;;;6278015;22;20181;-68
2022/09/20 20:56:14;;;;;;;10.97;4.13;;;11.80;99.90;;;;;;6277699;22;20198;-67
2022/09/20 20:58:43;;;;;;;10.50;5.00;;;11.80;99.90;;;;;;6277295;22;20185;-67
2022/09/20 21:01:12;;;;;;;7.47;4.10;;;11.80;99.90;;;;;;6277549;22;20179;-68
2022/09/20 21:03:41;;;;;;;10.70;4.30;;;11.60;99.90;;;;;;6277767;22;20618;-69
2022/09/20 21:06:09;;;;;;;9.50;4.17;;;11.50;99.90;;;;;;6277373;22;20210;-68
2022/09/20 21:08:38;;;;;;;9.23;4.50;;;11.40;99.90;;;;;;6277539;22;20175;-69
2022/09/20 21:11:06;;;;;;;8.17;3.57;;;11.40;99.90;;;;;;6277636;22;20174;-68
2022/09/20 21:13:34;;;;;;;7.40;4.30;;;11.40;99.90;;;;;;6277279;22;20250;-68
2022/09/20 21:16:09;;;;;;;10.60;4.43;;;11.30;99.90;;;;;;6276888;22;20675;-68
2022/09/20 21:18:38;;;;;;;6.80;4.03;;;11.30;99.90;;;;;;6277167;22;20182;-68
2022/09/20 21:21:14;;;;;;;8.07;3.47;;;11.30;99.90;;;;;;6277457;22;20183;-68
2022/09/20 21:23:42;;;;;;;9.53;4.03;;;11.10;99.90;;;;;;6277697;22;20175;-68
2022/09/20 21:26:11;;;;;;;9.70;3.90;;;11.20;99.90;;;;;;6274060;22;20663;-71
